createdAt,value
2018-07-11T00:06:39.299Z,31.60
2018-07-11T00:09:13.420Z,31.60
2018-07-11T00:11:46.709Z,31.70
2018-07-11T00:15:41.121Z,31.70
2018-07-11T00:20:46.738Z,31.90
2018-07-11T00:23:20.442Z,31.90
2018-07-11T00:25:54.770Z,31.90
2018-07-11T00:28:29.735Z,32.10
2018-07-11T00:33:37.341Z,32.20
2018-07-11T00:36:11.877Z,32.30
2018-07-11T00:38:47.246Z,32.40
2018-07-11T00:41:21.385Z,32.50
2018-07-11T00:43:55.402Z,32.50
2018-07-11T00:46:29.322Z,32.60
2018-07-11T00:49:03.533Z,32.70
2018-07-11T00:51:37.397Z,32.70
2018-07-11T00:54:11.009Z,32.70
2018-07-11T00:56:45.627Z,32.70
2018-07-11T00:59:24.699Z,32.80
2018-07-11T01:02:02.282Z,32.90
2018-07-11T01:04:36.645Z,32.90
2018-07-11T01:07:10.560Z,32.90
2018-07-11T01:09:50.022Z,33.00
2018-07-11T01:12:24.359Z,33.10
2018-07-11T01:14:59.601Z,33.20
2018-07-11T01:17:37.620Z,33.30
2018-07-11T01:20:14.271Z,33.40
2018-07-11T01:22:52.565Z,33.60
2018-07-11T01:25:27.653Z,33.60
2018-07-11T01:28:03.482Z,33.80
2018-07-11T01:30:38.981Z,33.80
2018-07-11T01:33:12.390Z,33.80
2018-07-11T01:35:46.337Z,33.80
2018-07-11T01:38:21.521Z,33.80
2018-07-11T01:40:56.023Z,33.80
2018-07-11T01:46:02.764Z,33.80
2018-07-11T01:48:39.484Z,33.70
2018-07-11T01:51:13.784Z,33.70
2018-07-11T01:53:47.858Z,33.70
2018-07-11T01:56:21.711Z,33.70
2018-07-11T01:58:55.962Z,33.60
2018-07-11T02:04:02.825Z,33.60
2018-07-11T02:06:37.119Z,33.60
2018-07-11T02:09:11.380Z,33.60
2018-07-11T02:11:44.912Z,33.60
2018-07-11T02:14:23.322Z,33.60
2018-07-11T02:16:57.096Z,33.70
2018-07-11T02:22:03.993Z,33.70
2018-07-11T02:24:38.103Z,33.70
2018-07-11T02:27:12.797Z,33.80
2018-07-11T02:29:46.296Z,33.80
2018-07-11T02:32:20.080Z,33.90
2018-07-11T02:34:54.187Z,33.90
2018-07-11T02:37:29.169Z,34.00
2018-07-11T02:40:05.261Z,34.00
2018-07-11T02:42:40.748Z,34.00
2018-07-11T02:45:15.499Z,34.00
2018-07-11T02:47:49.281Z,34.00
2018-07-11T02:50:25.463Z,34.00
2018-07-11T02:52:59.712Z,34.10
2018-07-11T02:55:33.288Z,34.10
2018-07-11T02:58:07.690Z,34.10
2018-07-11T03:00:41.990Z,34.10
2018-07-11T03:03:16.359Z,34.10
2018-07-11T03:05:53.208Z,34.10
2018-07-11T03:08:32.060Z,34.00
2018-07-11T03:11:06.082Z,34.00
2018-07-11T03:13:39.744Z,34.00
2018-07-11T03:16:14.287Z,34.00
2018-07-11T03:18:47.700Z,34.00
2018-07-11T03:21:21.420Z,33.90
2018-07-11T03:23:55.720Z,34.00
2018-07-11T03:26:29.710Z,34.00
2018-07-11T03:56:07.650Z,34.00
2018-07-11T03:58:42.137Z,34.00
2018-07-11T04:01:17.107Z,33.50
2018-07-11T04:03:50.924Z,33.50
2018-07-11T04:06:24.850Z,33.70
2018-07-11T04:11:32.220Z,34.00
2018-07-11T04:14:07.399Z,34.10
2018-07-11T04:16:41.660Z,34.30
2018-07-11T04:19:15.866Z,34.40
2018-07-11T04:21:49.543Z,34.50
2018-07-11T04:24:23.728Z,34.60
2018-07-11T04:26:58.785Z,34.70
2018-07-11T04:29:33.110Z,34.80
2018-07-11T04:32:06.843Z,34.80
2018-07-11T04:34:42.194Z,34.90
2018-07-11T04:37:16.505Z,35.00
2018-07-11T04:39:51.130Z,35.10
2018-07-11T04:42:25.261Z,35.20
2018-07-11T04:44:59.558Z,35.30
2018-07-11T04:47:34.652Z,35.30
2018-07-11T04:52:44.226Z,35.50
2018-07-11T04:55:17.723Z,35.50
2018-07-11T05:32:57.048Z,35.60
2018-07-11T05:35:30.406Z,35.50
2018-07-11T05:38:04.738Z,34.20
2018-07-11T05:40:38.782Z,34.30
2018-07-11T05:43:12.810Z,34.40
2018-07-11T05:45:46.587Z,34.60
2018-07-11T05:48:21.932Z,34.70
2018-07-11T05:50:56.028Z,34.80
2018-07-11T05:53:30.498Z,35.00
2018-07-11T05:56:05.195Z,35.10
2018-07-11T05:58:39.191Z,35.10
2018-07-11T06:01:13.119Z,35.20
2018-07-11T06:03:48.345Z,35.30
2018-07-11T06:06:22.791Z,35.30
2018-07-11T06:09:02.182Z,35.40
2018-07-11T06:11:36.061Z,35.40
2018-07-11T06:14:09.945Z,35.50
2018-07-11T06:16:43.805Z,35.60
2018-07-11T06:19:17.683Z,35.60
2018-07-11T06:21:55.109Z,35.60
2018-07-11T06:24:30.400Z,35.70
2018-07-11T06:27:05.236Z,35.70
2018-07-11T06:29:40.741Z,35.80
2018-07-11T06:32:14.702Z,35.80
2018-07-11T06:34:49.510Z,35.80
2018-07-11T06:37:24.304Z,35.90
2018-07-11T06:45:02.183Z,36.10
2018-07-11T06:47:36.742Z,36.30
2018-07-11T06:50:12.113Z,36.30
2018-07-11T06:52:46.652Z,36.30
2018-07-11T06:55:20.624Z,36.40
2018-07-11T06:57:55.443Z,36.40
2018-07-11T07:00:29.240Z,36.50
2018-07-11T07:03:03.600Z,36.50
2018-07-11T07:05:37.659Z,36.50
2018-07-11T07:08:11.348Z,36.50
2018-07-11T07:10:46.521Z,36.60
2018-07-11T07:13:22.649Z,36.60
2018-07-11T07:15:56.464Z,36.60
2018-07-11T07:18:30.146Z,36.60
2018-07-11T07:21:06.493Z,36.60
2018-07-11T07:23:40.470Z,36.60
2018-07-11T07:26:14.781Z,36.60
2018-07-11T07:28:49.339Z,36.60
2018-07-11T07:33:56.868Z,36.60
2018-07-11T07:36:31.634Z,36.60
2018-07-11T07:39:06.022Z,36.60
2018-07-11T07:41:41.710Z,36.60
2018-07-11T07:44:16.618Z,36.60
2018-07-11T07:46:54.558Z,36.60
2018-07-11T07:49:28.637Z,36.60
2018-07-11T07:52:03.449Z,36.60
2018-07-11T07:54:37.288Z,36.60
2018-07-11T07:57:11.663Z,36.60
2018-07-11T08:04:52.844Z,36.60
2018-07-11T08:07:28.418Z,36.60
2018-07-11T08:10:02.571Z,36.60
2018-07-11T08:12:39.116Z,36.50
2018-07-11T08:15:14.229Z,36.50
2018-07-11T08:20:25.749Z,36.50
2018-07-11T08:23:22.455Z,36.50
2018-07-11T08:26:06.306Z,36.50
2018-07-11T08:31:26.584Z,36.50
2018-07-11T08:34:20.445Z,36.50
2018-07-11T08:37:08.802Z,36.40
2018-07-11T08:40:56.964Z,36.30
2018-07-11T08:43:54.133Z,36.30
2018-07-11T08:49:14.420Z,36.20
2018-07-11T08:54:53.098Z,36.20
2018-07-11T08:57:57.072Z,36.20
2018-07-11T09:01:17.799Z,36.20
2018-07-11T09:06:16.493Z,36.20
2018-07-11T09:09:17.301Z,36.20
2018-07-11T09:14:02.789Z,36.20
2018-07-11T09:16:49.432Z,36.10
2018-07-11T09:21:40.128Z,36.10
2018-07-11T09:24:51.200Z,36.10
2018-07-11T09:27:25.212Z,36.00
2018-07-11T09:30:00.424Z,35.90
2018-07-11T09:32:38.073Z,35.90
2018-07-11T09:35:12.306Z,35.90
2018-07-11T09:37:46.450Z,35.90
2018-07-11T09:42:59.152Z,35.90
2018-07-11T09:45:33.268Z,35.90
2018-07-11T09:48:07.515Z,35.90
2018-07-11T09:50:41.766Z,35.90
2018-07-11T09:53:18.044Z,35.90
2018-07-11T09:55:54.344Z,35.80
2018-07-11T09:58:30.318Z,35.80
2018-07-11T10:01:09.524Z,35.80
2018-07-11T10:03:43.646Z,35.80
2018-07-11T10:08:55.928Z,35.70
2018-07-11T10:11:30.343Z,35.70
2018-07-11T10:14:04.414Z,35.60
2018-07-11T10:16:38.945Z,35.60
2018-07-11T10:19:13.219Z,35.60
2018-07-11T10:21:49.939Z,35.50
2018-07-11T10:24:26.318Z,35.50
2018-07-11T10:27:00.567Z,35.40
2018-07-11T10:29:35.793Z,35.40
2018-07-11T10:34:46.296Z,35.20
2018-07-11T10:37:21.471Z,35.20
2018-07-11T10:39:55.796Z,35.20
2018-07-11T10:42:43.311Z,35.10
2018-07-11T10:45:18.053Z,35.10
2018-07-11T10:47:51.853Z,35.00
2018-07-11T10:50:25.970Z,35.00
2018-07-11T10:53:02.652Z,35.00
2018-07-11T10:55:36.934Z,34.90
2018-07-11T10:58:12.494Z,34.90
2018-07-11T11:01:05.023Z,34.80
2018-07-11T11:03:32.751Z,34.80
2018-07-11T11:06:06.251Z,34.80
2018-07-11T11:08:40.445Z,34.70
2018-07-11T11:11:14.515Z,34.70
2018-07-11T11:13:48.642Z,34.60
2018-07-11T11:16:22.566Z,34.60
2018-07-11T11:18:56.602Z,34.60
2018-07-11T11:21:31.741Z,34.50
2018-07-11T11:24:05.594Z,34.50
2018-07-11T11:29:13.001Z,34.50
2018-07-11T11:31:46.467Z,34.50
2018-07-11T11:34:20.590Z,34.40
2018-07-11T11:39:27.730Z,34.40
2018-07-11T11:42:02.847Z,34.40
2018-07-11T11:44:37.059Z,34.40
2018-07-11T11:47:13.024Z,34.30
2018-07-11T11:49:47.207Z,34.30
2018-07-11T11:52:22.970Z,34.30
2018-07-11T11:57:30.486Z,34.30
2018-07-11T12:00:06.750Z,34.30
2018-07-11T12:02:41.788Z,34.30
2018-07-11T12:07:50.671Z,34.20
2018-07-11T12:10:25.355Z,34.20
2018-07-11T12:12:59.380Z,34.20
2018-07-11T12:18:06.071Z,34.10
2018-07-11T12:20:41.158Z,34.10
2018-07-11T12:23:17.993Z,34.10
2018-07-11T12:26:14.096Z,34.10
2018-07-11T12:31:21.410Z,34.00
2018-07-11T12:39:05.156Z,34.00
2018-07-11T12:41:39.892Z,33.90
2018-07-11T12:44:14.405Z,33.90
2018-07-11T12:46:49.818Z,33.90
2018-07-11T12:49:31.452Z,33.80
2018-07-11T12:52:05.224Z,33.80
2018-07-11T12:54:39.615Z,33.80
2018-07-11T12:57:15.409Z,33.80
2018-07-11T12:59:50.359Z,33.80
2018-07-11T13:02:25.887Z,33.80
2018-07-11T13:04:59.908Z,33.70
2018-07-11T13:07:34.394Z,33.70
2018-07-11T13:10:08.484Z,33.70
2018-07-11T13:12:42.537Z,33.70
2018-07-11T13:15:16.206Z,33.70
2018-07-11T13:17:51.504Z,33.70
2018-07-11T13:20:25.282Z,33.70
2018-07-11T13:23:00.293Z,33.70
2018-07-11T13:25:34.339Z,33.70
2018-07-11T13:28:08.601Z,33.70
2018-07-11T13:30:42.415Z,33.70
2018-07-11T13:33:17.234Z,33.70
2018-07-11T13:35:51.413Z,33.70
2018-07-11T13:38:25.736Z,33.60
2018-07-11T13:41:00.055Z,33.60
2018-07-11T13:46:10.305Z,33.60
2018-07-11T13:48:44.075Z,33.60
2018-07-11T13:51:17.405Z,33.60
2018-07-11T13:53:52.243Z,33.60
2018-07-11T13:56:27.120Z,33.60
2018-07-11T13:59:01.365Z,33.60
2018-07-11T14:01:35.399Z,33.60
2018-07-11T14:04:09.914Z,33.60
2018-07-11T14:06:43.832Z,33.50
2018-07-11T14:09:17.918Z,33.50
2018-07-11T14:11:52.041Z,33.50
2018-07-11T14:14:25.624Z,33.50
2018-07-11T14:16:59.566Z,33.50
2018-07-11T14:22:05.754Z,33.50
2018-07-11T14:24:39.591Z,33.40
2018-07-11T14:27:15.508Z,33.40
2018-07-11T14:29:49.452Z,33.40
2018-07-11T14:34:55.717Z,33.40
2018-07-11T14:37:29.606Z,33.40
2018-07-11T14:40:04.597Z,33.40
2018-07-11T14:42:38.010Z,33.40
2018-07-11T14:45:12.285Z,33.40
2018-07-11T14:47:49.801Z,33.40
2018-07-11T14:50:23.726Z,33.40
2018-07-11T14:52:57.543Z,33.30
2018-07-11T14:55:31.637Z,33.30
2018-07-11T14:58:05.589Z,33.30
2018-07-11T15:00:39.497Z,33.30
2018-07-11T15:03:13.465Z,33.30
2018-07-11T15:05:48.426Z,33.30
2018-07-11T15:08:22.917Z,33.30
2018-07-11T15:10:56.999Z,33.20
2018-07-11T15:13:31.113Z,33.20
2018-07-11T15:16:05.175Z,33.30
2018-07-11T15:18:39.656Z,33.20
2018-07-11T15:26:18.068Z,33.20
2018-07-11T15:28:52.309Z,33.20
2018-07-11T15:31:26.203Z,33.20
2018-07-11T15:34:00.068Z,33.10
2018-07-11T15:39:07.467Z,33.10
2018-07-11T15:44:13.594Z,33.10
2018-07-11T15:46:47.644Z,33.10
2018-07-11T15:49:22.751Z,33.10
2018-07-11T15:51:56.566Z,33.10
2018-07-11T15:54:30.507Z,33.00
2018-07-11T15:57:05.696Z,33.00
2018-07-11T15:59:43.442Z,33.00
2018-07-11T16:02:17.351Z,33.00
2018-07-11T16:04:51.869Z,33.00
2018-07-11T16:07:26.589Z,33.00
2018-07-11T16:10:02.019Z,33.00
2018-07-11T16:12:35.992Z,33.00
2018-07-11T16:15:10.312Z,33.00
2018-07-11T16:17:44.043Z,33.00
2018-07-11T16:20:18.736Z,33.00
2018-07-11T16:22:53.342Z,33.00
2018-07-11T16:25:26.915Z,33.00
2018-07-11T16:28:01.645Z,33.00
2018-07-11T16:30:36.658Z,33.00
2018-07-11T16:33:10.940Z,33.00
2018-07-11T16:35:45.085Z,32.90
2018-07-11T16:38:19.186Z,33.00
2018-07-11T16:40:53.180Z,32.90
2018-07-11T16:43:26.998Z,32.90
2018-07-11T16:46:01.594Z,32.90
2018-07-11T16:48:36.182Z,32.90
2018-07-11T16:51:10.369Z,32.90
2018-07-11T16:53:44.844Z,32.90
2018-07-11T16:56:19.126Z,32.90
2018-07-11T16:59:01.050Z,32.90
2018-07-11T17:01:42.669Z,32.90
2018-07-11T17:04:17.459Z,32.90
2018-07-11T17:06:53.298Z,32.90
2018-07-11T17:14:36.354Z,32.90
2018-07-11T17:17:10.054Z,32.80
2018-07-11T17:19:49.582Z,32.80
2018-07-11T17:22:28.943Z,32.80
2018-07-11T17:25:05.871Z,32.80
2018-07-11T17:27:40.630Z,32.80
2018-07-11T17:30:14.392Z,32.80
2018-07-11T17:32:48.023Z,32.80
2018-07-11T17:35:21.452Z,32.80
2018-07-11T17:37:55.176Z,32.80
2018-07-11T17:40:30.045Z,32.80
2018-07-11T17:43:03.351Z,32.80
2018-07-11T17:45:38.462Z,32.80
2018-07-11T17:50:23.233Z,32.80
2018-07-11T17:53:10.701Z,32.80
2018-07-11T17:55:52.656Z,32.70
2018-07-11T17:58:34.877Z,32.70
2018-07-11T18:01:10.999Z,32.70
2018-07-11T18:03:57.402Z,32.70
2018-07-11T18:07:50.820Z,32.70
2018-07-11T18:10:53.181Z,32.70
2018-07-11T18:13:34.864Z,32.60
2018-07-11T18:17:19.081Z,32.60
2018-07-11T18:21:04.870Z,32.60
2018-07-11T18:23:47.139Z,32.60
2018-07-11T18:26:35.586Z,32.50
2018-07-11T18:29:34.323Z,32.50
2018-07-11T18:37:58.896Z,32.50
2018-07-11T18:40:39.924Z,32.50
2018-07-11T18:43:57.890Z,32.40
2018-07-11T18:46:42.751Z,32.40
2018-07-11T18:49:27.091Z,32.40
2018-07-11T18:52:24.095Z,32.40
2018-07-11T18:56:37.096Z,32.40
2018-07-11T18:59:26.178Z,32.40
2018-07-11T19:07:20.375Z,32.40
2018-07-11T19:09:57.898Z,32.40
2018-07-11T19:12:35.477Z,32.30
2018-07-11T19:18:12.333Z,32.30
2018-07-11T19:20:55.139Z,32.20
2018-07-11T19:23:47.444Z,32.30
2018-07-11T19:27:00.593Z,32.30
2018-07-11T19:30:15.837Z,32.30
2018-07-11T19:33:48.040Z,32.30
2018-07-11T19:37:43.753Z,32.30
2018-07-11T19:40:27.319Z,32.30
2018-07-11T19:45:23.161Z,32.30
2018-07-11T19:52:51.762Z,32.20
2018-07-11T19:55:38.817Z,32.10
2018-07-11T19:58:12.895Z,32.00
2018-07-11T20:03:19.430Z,32.10
2018-07-11T20:05:53.681Z,32.10
2018-07-11T20:08:27.480Z,32.10
2018-07-11T20:11:01.374Z,32.20
2018-07-11T20:13:37.414Z,32.20
2018-07-11T20:16:11.303Z,32.20
2018-07-11T20:18:45.281Z,32.20
2018-07-11T20:21:19.320Z,32.20
2018-07-11T20:23:52.695Z,32.20
2018-07-11T20:26:26.477Z,32.20
2018-07-11T20:29:00.375Z,32.20
2018-07-11T20:31:34.162Z,32.20
2018-07-11T20:34:08.134Z,32.20
2018-07-11T20:36:41.841Z,32.30
2018-07-11T20:41:48.210Z,32.30
2018-07-11T20:44:21.910Z,32.30
2018-07-11T20:46:55.664Z,32.20
2018-07-11T20:49:36.199Z,32.20
2018-07-11T20:52:09.936Z,32.30
2018-07-11T20:54:44.602Z,32.30
2018-07-11T20:57:19.436Z,32.30
2018-07-11T21:01:03.546Z,32.20
2018-07-11T21:05:52.442Z,32.20
2018-07-11T21:08:36.546Z,32.20
2018-07-11T21:24:21.641Z,32.10
2018-07-11T21:29:28.028Z,31.60
2018-07-11T21:56:08.494Z,31.60
2018-07-11T21:58:42.324Z,31.60
2018-07-11T22:03:49.399Z,31.10
2018-07-11T22:06:23.522Z,31.10
2018-07-11T22:08:57.039Z,31.20
2018-07-11T22:11:30.654Z,31.30
2018-07-11T22:16:37.253Z,31.40
2018-07-11T22:21:40.136Z,31.60
2018-07-11T22:26:42.128Z,31.70
2018-07-11T22:29:12.778Z,31.70
2018-07-11T22:34:17.919Z,31.80
2018-07-11T22:36:48.410Z,31.80
2018-07-11T22:39:18.576Z,31.80
2018-07-11T22:41:49.059Z,31.80
2018-07-11T22:44:19.392Z,31.80
2018-07-11T22:46:50.198Z,31.90
2018-07-11T22:49:20.989Z,31.90
2018-07-11T22:56:53.364Z,31.90
2018-07-11T22:59:23.611Z,31.90
2018-07-11T23:01:54.048Z,31.90
2018-07-11T23:04:25.123Z,31.90
2018-07-11T23:06:55.999Z,31.90
2018-07-11T23:09:26.464Z,31.90
2018-07-11T23:11:57.347Z,31.90
2018-07-11T23:14:27.885Z,31.90
2018-07-11T23:16:58.358Z,31.90
2018-07-11T23:19:29.268Z,31.90
2018-07-11T23:21:59.718Z,31.90
2018-07-11T23:24:30.112Z,31.90
2018-07-11T23:27:01.626Z,31.90
2018-07-11T23:32:02.740Z,31.90
2018-07-11T23:34:33.338Z,31.90
2018-07-11T23:37:03.367Z,31.90
2018-07-11T23:42:35.526Z,32.00
2018-07-11T23:45:06.322Z,31.90
2018-07-11T23:47:36.333Z,31.90
2018-07-11T23:50:07.005Z,31.90
2018-07-11T23:52:37.280Z,31.90
2018-07-11T23:55:09.180Z,32.00
2018-07-11T23:57:39.740Z,32.00
